createdAt,value
2022-11-20T00:02:09.413Z,14.73
2022-11-20T00:05:12.183Z,14.77
2022-11-20T00:08:14.994Z,14.90
2022-11-20T00:11:20.818Z,12.20
2022-11-20T00:14:23.626Z,13.98
2022-11-20T00:17:26.113Z,14.52
2022-11-20T00:20:29.115Z,13.40
2022-11-20T00:23:32.141Z,11.43
2022-11-20T00:26:35.340Z,12.82
2022-11-20T00:29:37.905Z,12.85
2022-11-20T00:32:40.669Z,12.88
2022-11-20T00:35:43.271Z,11.98
2022-11-20T00:38:46.635Z,11.98
2022-11-20T00:41:49.272Z,11.03
2022-11-20T00:44:51.947Z,13.15
2022-11-20T00:47:54.520Z,12.30
2022-11-20T00:50:57.528Z,13.47
2022-11-20T00:54:01.242Z,13.05
2022-11-20T00:57:04.379Z,12.07
2022-11-20T01:00:07.553Z,11.40
2022-11-20T01:03:10.448Z,13.90
2022-11-20T01:06:18.900Z,12.48
2022-11-20T01:09:21.987Z,12.52
2022-11-20T01:12:24.647Z,12.63
2022-11-20T01:15:27.417Z,13.40
2022-11-20T01:18:30.222Z,12.80
2022-11-20T01:21:38.812Z,12.47
2022-11-20T01:24:41.295Z,12.25
2022-11-20T01:27:44.045Z,12.38
2022-11-20T01:30:46.771Z,13.43
2022-11-20T01:33:52.400Z,12.07
2022-11-20T01:36:55.224Z,13.27
2022-11-20T01:39:58.065Z,14.52
2022-11-20T01:43:23.283Z,12.40
2022-11-20T01:46:26.297Z,11.75
2022-11-20T01:49:42.064Z,12.38
2022-11-20T01:52:54.975Z,11.43
2022-11-20T01:56:00.637Z,12.13
2022-11-20T01:59:06.515Z,12.57
2022-11-20T02:02:09.140Z,11.20
2022-11-20T02:05:24.643Z,10.77
2022-11-20T02:08:27.823Z,11.23
2022-11-20T02:11:32.254Z,11.57
2022-11-20T02:14:34.981Z,12.07
2022-11-20T02:17:38.311Z,10.98
2022-11-20T02:20:45.140Z,11.23
2022-11-20T02:24:06.193Z,12.03
2022-11-20T02:27:17.076Z,10.35
2022-11-20T02:30:20.155Z,11.93
2022-11-20T02:33:22.837Z,11.45
2022-11-20T02:36:28.900Z,13.27
2022-11-20T02:39:31.644Z,12.77
2022-11-20T02:42:34.389Z,12.35
2022-11-20T02:45:37.427Z,11.23
2022-11-20T02:48:40.510Z,12.32
2022-11-20T02:51:43.051Z,10.82
2022-11-20T02:54:45.962Z,12.50
2022-11-20T02:57:48.418Z,11.55
2022-11-20T03:00:51.493Z,11.38
2022-11-20T03:03:55.786Z,12.02
2022-11-20T03:06:58.458Z,11.18
2022-11-20T03:10:01.287Z,10.35
2022-11-20T03:13:03.975Z,11.40
2022-11-20T03:16:18.148Z,11.70
2022-11-20T03:19:21.483Z,11.20
2022-11-20T03:22:24.140Z,9.73
2022-11-20T03:25:27.124Z,10.50
2022-11-20T03:28:29.779Z,9.95
2022-11-20T03:31:35.912Z,10.05
2022-11-20T03:34:38.693Z,10.38
2022-11-20T03:37:41.578Z,9.48
2022-11-20T03:40:44.291Z,11.35
2022-11-20T03:43:54.309Z,11.05
2022-11-20T03:46:56.984Z,11.60
2022-11-20T03:49:59.951Z,11.48
2022-11-20T03:53:02.396Z,10.30
2022-11-20T03:56:05.822Z,11.93
2022-11-20T03:59:11.690Z,10.25
2022-11-20T04:02:14.854Z,10.55
2022-11-20T04:05:17.492Z,11.20
2022-11-20T04:08:20.220Z,10.85
2022-11-20T04:11:25.567Z,10.90
2022-11-20T04:14:28.521Z,10.85
2022-11-20T04:17:31.155Z,12.07
2022-11-20T04:20:34.524Z,11.18
2022-11-20T04:23:37.458Z,10.13
2022-11-20T04:26:41.409Z,10.23
2022-11-20T04:29:43.879Z,10.85
2022-11-20T04:32:47.082Z,12.48
2022-11-20T04:35:49.670Z,11.00
2022-11-20T04:38:56.752Z,11.07
2022-11-20T04:42:22.901Z,11.63
2022-11-20T04:45:25.733Z,10.77
2022-11-20T04:48:29.608Z,11.07
2022-11-20T04:51:32.906Z,11.75
2022-11-20T04:54:35.316Z,12.48
2022-11-20T04:57:38.231Z,11.47
2022-11-20T05:00:41.040Z,10.90
2022-11-20T05:03:45.613Z,11.90
2022-11-20T05:06:48.298Z,12.60
2022-11-20T05:09:51.197Z,11.20
2022-11-20T05:12:54.343Z,11.27
2022-11-20T05:15:57.193Z,12.52
2022-11-20T05:19:00.270Z,13.80
2022-11-20T05:22:02.952Z,12.20
2022-11-20T05:25:05.777Z,12.13
2022-11-20T05:28:08.843Z,12.00
2022-11-20T05:31:14.035Z,12.82
2022-11-20T05:34:17.081Z,12.30
2022-11-20T05:37:19.983Z,13.60
2022-11-20T05:40:22.615Z,11.98
2022-11-20T05:43:25.249Z,12.40
2022-11-20T05:46:29.436Z,13.00
2022-11-20T05:49:33.359Z,11.73
2022-11-20T05:52:36.219Z,12.98
2022-11-20T05:55:38.833Z,12.00
2022-11-20T05:58:41.924Z,11.83
2022-11-20T06:01:44.444Z,11.82
2022-11-20T06:04:47.448Z,13.82
2022-11-20T06:07:50.094Z,13.55
2022-11-20T06:10:52.970Z,13.30
2022-11-20T06:13:55.787Z,13.10
2022-11-20T06:16:58.719Z,13.13
2022-11-20T06:20:01.622Z,14.73
2022-11-20T06:23:04.529Z,12.40
2022-11-20T06:26:13.212Z,14.98
2022-11-20T06:29:16.292Z,8.13
2022-11-20T06:32:18.740Z,11.70
2022-11-20T06:35:21.655Z,12.73
2022-11-20T06:38:25.007Z,12.82
2022-11-20T06:41:29.095Z,12.95
2022-11-20T06:44:31.748Z,13.73
2022-11-20T06:47:34.796Z,12.88
2022-11-20T06:50:38.095Z,13.33
2022-11-20T06:53:40.908Z,13.73
2022-11-20T06:56:43.336Z,14.07
2022-11-20T06:59:46.378Z,13.70
2022-11-20T07:02:49.010Z,13.35
2022-11-20T07:05:51.866Z,13.55
2022-11-20T07:08:54.548Z,13.50
2022-11-20T07:11:57.302Z,14.00
2022-11-20T07:14:59.913Z,13.63
2022-11-20T07:18:03.273Z,12.55
2022-11-20T07:21:09.308Z,13.17
2022-11-20T07:24:11.964Z,14.00
2022-11-20T07:27:15.269Z,13.10
2022-11-20T07:30:18.331Z,13.90
2022-11-20T07:33:20.900Z,14.38
2022-11-20T07:36:23.783Z,14.05
2022-11-20T07:39:26.930Z,12.68
2022-11-20T07:42:29.916Z,13.80
2022-11-20T07:45:32.616Z,14.88
2022-11-20T07:48:35.288Z,15.68
2022-11-20T07:51:37.900Z,14.33
2022-11-20T07:54:40.979Z,13.98
2022-11-20T07:57:43.471Z,13.57
2022-11-20T08:00:46.687Z,14.30
2022-11-20T08:03:49.284Z,12.23
2022-11-20T08:06:53.733Z,13.07
2022-11-20T08:09:56.527Z,12.82
2022-11-20T08:13:17.747Z,12.45
2022-11-20T08:16:20.376Z,12.95
2022-11-20T08:19:23.805Z,11.40
2022-11-20T08:22:26.880Z,11.00
2022-11-20T08:25:31.220Z,12.18
2022-11-20T08:28:33.719Z,13.15
2022-11-20T08:31:37.120Z,12.67
2022-11-20T08:34:39.605Z,11.77
2022-11-20T08:37:42.797Z,11.48
2022-11-20T08:41:05.327Z,12.73
2022-11-20T08:44:08.888Z,11.30
2022-11-20T08:47:11.599Z,12.85
2022-11-20T08:50:16.374Z,12.23
2022-11-20T08:53:18.870Z,12.40
2022-11-20T08:56:21.684Z,12.45
2022-11-20T08:59:43.851Z,11.75
2022-11-20T09:02:47.540Z,13.57
2022-11-20T09:05:50.002Z,12.43
2022-11-20T09:08:58.700Z,13.35
2022-11-20T09:12:02.433Z,13.98
2022-11-20T09:15:05.570Z,13.65
2022-11-20T09:18:08.252Z,13.23
2022-11-20T09:21:12.994Z,14.32
2022-11-20T09:24:15.860Z,14.17
2022-11-20T09:27:24.691Z,12.43
2022-11-20T09:30:28.050Z,12.18
2022-11-20T09:33:31.514Z,13.30
2022-11-20T09:36:34.002Z,12.55
2022-11-20T09:39:40.070Z,12.63
2022-11-20T09:42:50.508Z,13.18
2022-11-20T09:45:56.827Z,11.43
2022-11-20T09:49:18.288Z,12.70
2022-11-20T09:52:42.803Z,12.90
2022-11-20T09:55:47.473Z,12.43
2022-11-20T09:58:55.870Z,11.32
2022-11-20T10:02:00.458Z,11.15
2022-11-20T10:05:20.650Z,11.80
2022-11-20T10:08:23.319Z,12.40
2022-11-20T10:12:08.053Z,14.23
2022-11-20T10:15:26.291Z,13.57
2022-11-20T10:18:44.007Z,13.93
2022-11-20T10:22:19.302Z,13.10
2022-11-20T10:25:43.867Z,12.40
2022-11-20T10:29:08.982Z,11.77
2022-11-20T10:32:19.621Z,8.40
2022-11-20T10:35:23.060Z,10.57
2022-11-20T10:38:50.779Z,10.70
2022-11-20T10:41:54.805Z,10.40
2022-11-20T10:45:11.302Z,10.82
2022-11-20T10:48:19.404Z,10.70
2022-11-20T10:51:31.122Z,11.18
2022-11-20T10:55:34.597Z,10.93
2022-11-20T10:58:50.140Z,11.50
2022-11-20T11:01:53.097Z,11.33
2022-11-20T11:04:56.178Z,11.02
2022-11-20T11:07:59.967Z,10.45
2022-11-20T11:11:18.315Z,12.73
2022-11-20T11:14:21.449Z,12.27
2022-11-20T11:17:28.318Z,13.35
2022-11-20T11:20:52.075Z,12.10
2022-11-20T11:24:19.679Z,12.60
2022-11-20T11:27:25.743Z,14.45
2022-11-20T11:30:31.650Z,12.75
2022-11-20T11:33:37.048Z,11.03
2022-11-20T11:36:40.436Z,12.40
2022-11-20T11:39:43.931Z,11.60
2022-11-20T11:42:59.096Z,10.23
2022-11-20T11:46:01.807Z,11.73
2022-11-20T11:49:10.523Z,12.52
2022-11-20T11:52:25.350Z,12.02
2022-11-20T11:55:45.049Z,10.82
2022-11-20T11:58:53.216Z,13.20
2022-11-20T12:02:01.355Z,15.10
2022-11-20T12:05:16.112Z,13.23
2022-11-20T12:08:25.317Z,14.38
2022-11-20T12:11:58.085Z,15.50
2022-11-20T12:15:01.426Z,13.67
2022-11-20T12:18:15.453Z,15.80
2022-11-20T12:21:24.821Z,15.18
2022-11-20T12:24:36.880Z,14.30
2022-11-20T12:28:09.581Z,13.60
2022-11-20T12:31:21.099Z,14.15
2022-11-20T12:34:46.426Z,12.57
2022-11-20T12:38:14.379Z,14.20
2022-11-20T12:41:53.848Z,13.05
2022-11-20T12:45:11.226Z,12.90
2022-11-20T12:48:25.041Z,12.87
2022-11-20T12:51:34.576Z,13.63
2022-11-20T12:54:55.658Z,13.35
2022-11-20T12:58:22.188Z,13.48
2022-11-20T13:01:49.080Z,13.75
2022-11-20T13:05:30.381Z,14.18
2022-11-20T13:08:39.549Z,14.18
2022-11-20T13:12:11.011Z,13.03
2022-11-20T13:15:46.776Z,14.43
2022-11-20T13:18:49.720Z,12.77
2022-11-20T13:21:52.993Z,12.07
2022-11-20T13:24:55.987Z,11.57
2022-11-20T13:28:12.858Z,11.93
2022-11-20T13:31:31.797Z,11.57
2022-11-20T13:34:34.979Z,11.93
2022-11-20T13:37:38.979Z,12.15
2022-11-20T13:40:58.567Z,11.68
2022-11-20T13:44:09.979Z,13.97
2022-11-20T13:47:25.023Z,19.42
2022-11-20T13:50:41.102Z,14.25
2022-11-20T13:54:07.750Z,13.37
2022-11-20T13:57:38.204Z,11.52
2022-11-20T14:01:02.042Z,12.32
2022-11-20T14:04:16.737Z,14.98
2022-11-20T14:07:27.481Z,15.05
2022-11-20T14:10:32.359Z,17.00
2022-11-20T14:13:35.722Z,19.60
2022-11-20T14:16:38.878Z,16.27
2022-11-20T14:19:44.393Z,12.30
2022-11-20T14:22:51.660Z,14.38
2022-11-20T14:25:55.289Z,14.73
2022-11-20T14:28:58.122Z,21.38
2022-11-20T14:32:02.180Z,23.08
2022-11-20T14:35:10.922Z,27.02
2022-11-20T14:38:16.351Z,27.20
2022-11-20T14:41:24.575Z,28.20
2022-11-20T14:44:38.415Z,36.05
2022-11-20T14:47:42.775Z,27.37
2022-11-20T14:50:45.747Z,27.20
2022-11-20T14:53:49.455Z,26.30
2022-11-20T14:56:57.348Z,28.30
2022-11-20T15:00:13.441Z,29.38
2022-11-20T15:03:17.806Z,28.70
2022-11-20T15:06:27.092Z,30.60
2022-11-20T15:09:30.416Z,27.98
2022-11-20T15:12:37.199Z,28.15
2022-11-20T15:15:42.879Z,27.58
2022-11-20T15:18:45.758Z,25.43
2022-11-20T15:21:49.071Z,27.90
2022-11-20T15:24:51.845Z,31.95
2022-11-20T15:27:57.463Z,27.80
2022-11-20T15:31:00.998Z,36.20
2022-11-20T15:34:08.606Z,39.20
2022-11-20T15:37:11.804Z,41.97
2022-11-20T15:40:14.976Z,34.33
2022-11-20T15:43:17.813Z,30.95
2022-11-20T15:46:27.569Z,32.08
2022-11-20T15:49:30.490Z,36.33
2022-11-20T15:52:42.098Z,33.28
2022-11-20T15:55:44.924Z,27.90
2022-11-20T15:58:48.235Z,24.60
2022-11-20T16:01:50.746Z,24.70
2022-11-20T16:04:53.772Z,24.10
2022-11-20T16:07:57.026Z,25.50
2022-11-20T16:11:00.112Z,23.65
2022-11-20T16:14:22.819Z,29.92
2022-11-20T16:17:43.699Z,31.13
2022-11-20T16:20:49.147Z,32.67
2022-11-20T16:23:51.707Z,33.03
2022-11-20T16:26:55.217Z,31.70
2022-11-20T16:29:58.179Z,42.30
2022-11-20T16:33:01.759Z,40.15
2022-11-20T16:36:16.229Z,39.58
2022-11-20T16:39:23.646Z,40.33
2022-11-20T16:42:26.986Z,75.00
2022-11-20T16:45:33.725Z,70.07
2022-11-20T16:48:37.566Z,69.55
2022-11-20T16:51:40.758Z,172.27
2022-11-20T16:54:44.156Z,164.38
2022-11-20T16:57:46.862Z,112.30
2022-11-20T17:00:51.813Z,94.00
2022-11-20T17:03:57.736Z,76.05
2022-11-20T17:07:07.526Z,106.38
2022-11-20T17:10:10.955Z,119.70
2022-11-20T17:13:14.198Z,97.10
2022-11-20T17:16:19.956Z,94.93
2022-11-20T17:19:22.592Z,92.93
2022-11-20T17:22:25.680Z,86.80
2022-11-20T17:25:28.682Z,86.30
2022-11-20T17:28:32.523Z,78.82
2022-11-20T17:31:36.639Z,75.27
2022-11-20T17:34:39.582Z,71.18
2022-11-20T17:37:42.598Z,73.55
2022-11-20T17:40:46.323Z,56.60
2022-11-20T17:43:50.168Z,59.33
2022-11-20T17:46:53.016Z,48.53
2022-11-20T17:49:55.867Z,44.15
2022-11-20T17:52:58.936Z,40.63
2022-11-20T17:56:20.681Z,40.03
2022-11-20T17:59:23.377Z,41.78
2022-11-20T18:02:26.468Z,68.00
2022-11-20T18:05:28.967Z,66.72
2022-11-20T18:08:32.351Z,68.93
2022-11-20T18:11:38.914Z,77.25
2022-11-20T18:14:43.726Z,83.72
2022-11-20T18:17:46.767Z,45.13
2022-11-20T18:20:54.338Z,37.90
2022-11-20T18:23:57.950Z,49.00
2022-11-20T18:27:01.065Z,52.25
2022-11-20T18:30:04.367Z,52.65
2022-11-20T18:33:07.659Z,52.63
2022-11-20T18:36:13.099Z,57.17
2022-11-20T18:39:16.827Z,55.92
2022-11-20T18:42:38.295Z,54.90
2022-11-20T18:45:41.090Z,52.10
2022-11-20T18:48:44.054Z,53.50
2022-11-20T18:51:48.166Z,55.58
2022-11-20T18:54:51.787Z,49.27
2022-11-20T18:57:55.394Z,58.95
2022-11-20T19:01:08.616Z,62.88
2022-11-20T19:04:14.251Z,67.37
2022-11-20T19:07:17.213Z,62.70
2022-11-20T19:10:20.465Z,59.05
2022-11-20T19:13:23.366Z,56.40
2022-11-20T19:16:26.266Z,71.28
2022-11-20T19:19:29.914Z,80.80
2022-11-20T19:22:32.893Z,81.03
2022-11-20T19:25:38.429Z,77.23
2022-11-20T19:28:41.445Z,83.43
2022-11-20T19:31:44.328Z,81.65
2022-11-20T19:34:47.162Z,108.20
2022-11-20T19:37:51.879Z,115.82
2022-11-20T19:40:54.998Z,105.38
2022-11-20T19:44:03.228Z,100.88
2022-11-20T19:47:10.234Z,96.97
2022-11-20T19:50:16.392Z,84.10
2022-11-20T19:53:19.203Z,79.63
2022-11-20T19:56:22.105Z,64.13
2022-11-20T19:59:25.506Z,62.78
2022-11-20T20:02:28.996Z,58.47
2022-11-20T20:05:34.439Z,46.63
2022-11-20T20:08:38.233Z,51.70
2022-11-20T20:11:45.795Z,42.28
2022-11-20T20:14:48.802Z,39.47
2022-11-20T20:17:53.114Z,35.45
2022-11-20T20:21:03.814Z,36.13
2022-11-20T20:24:07.503Z,32.58
2022-11-20T20:27:10.683Z,33.27
2022-11-20T20:30:13.751Z,37.10
2022-11-20T20:33:16.588Z,34.53
2022-11-20T20:36:21.202Z,35.53
2022-11-20T20:39:26.856Z,36.75
2022-11-20T20:42:32.107Z,34.45
2022-11-20T20:45:34.901Z,35.20
2022-11-20T20:48:37.878Z,35.65
2022-11-20T20:51:40.681Z,33.60
2022-11-20T20:54:43.606Z,31.52
2022-11-20T20:57:46.457Z,33.70
2022-11-20T21:00:49.612Z,34.95
2022-11-20T21:03:52.287Z,33.40
2022-11-20T21:06:55.341Z,34.70
2022-11-20T21:09:58.213Z,35.92
2022-11-20T21:13:01.539Z,37.13
2022-11-20T21:16:04.684Z,37.17
2022-11-20T21:19:08.087Z,33.97
2022-11-20T21:22:11.046Z,32.53
2022-11-20T21:25:13.732Z,31.52
2022-11-20T21:28:18.396Z,32.60
2022-11-20T21:31:25.048Z,31.17
2022-11-20T21:34:27.776Z,34.55
2022-11-20T21:37:30.564Z,40.33
2022-11-20T21:40:33.311Z,67.88
2022-11-20T21:43:38.112Z,51.63
2022-11-20T21:46:44.570Z,58.35
2022-11-20T21:49:47.729Z,58.67
2022-11-20T21:52:50.299Z,63.75
2022-11-20T21:55:56.777Z,55.97
2022-11-20T21:58:59.576Z,49.83
2022-11-20T22:02:02.369Z,53.78
2022-11-20T22:05:05.158Z,51.67
2022-11-20T22:08:07.902Z,57.60
2022-11-20T22:11:13.678Z,44.85
2022-11-20T22:14:23.264Z,50.63
2022-11-20T22:17:44.858Z,45.72
2022-11-20T22:20:47.488Z,50.20
2022-11-20T22:23:50.207Z,50.28
2022-11-20T22:26:52.870Z,47.53
2022-11-20T22:29:55.614Z,43.03
2022-11-20T22:32:58.499Z,42.33
2022-11-20T22:36:07.012Z,45.65
2022-11-20T22:39:10.351Z,44.03
2022-11-20T22:42:12.787Z,43.47
2022-11-20T22:45:15.924Z,38.65
2022-11-20T22:48:18.683Z,39.72
2022-11-20T22:51:27.514Z,36.55
2022-11-20T22:54:30.153Z,42.65
2022-11-20T22:57:33.008Z,46.88
2022-11-20T23:00:35.808Z,48.27
2022-11-20T23:03:39.955Z,45.22
2022-11-20T23:06:42.562Z,43.47
2022-11-20T23:09:45.283Z,43.40
2022-11-20T23:12:47.832Z,46.95
2022-11-20T23:15:50.537Z,43.03
2022-11-20T23:18:54.940Z,41.55
2022-11-20T23:21:57.431Z,39.17
2022-11-20T23:25:00.091Z,41.10
2022-11-20T23:28:02.899Z,39.20
2022-11-20T23:31:06.488Z,37.90
2022-11-20T23:34:09.339Z,38.47
2022-11-20T23:37:11.986Z,37.63
2022-11-20T23:40:15.765Z,38.33
2022-11-20T23:43:20.609Z,37.08
2022-11-20T23:46:23.248Z,39.08
2022-11-20T23:49:25.832Z,37.17
2022-11-20T23:52:28.559Z,37.50
2022-11-20T23:55:31.210Z,34.63
2022-11-20T23:58:36.619Z,33.88
